createdAt,value
2022-11-06T00:00:38.633Z,5.93
2022-11-06T00:03:07.557Z,4.78
2022-11-06T00:05:57.950Z,5.38
2022-11-06T00:08:32.083Z,5.55
2022-11-06T00:11:00.146Z,5.10
2022-11-06T00:13:28.816Z,5.25
2022-11-06T00:15:57.054Z,5.28
2022-11-06T00:18:27.755Z,5.30
2022-11-06T00:20:57.323Z,5.00
2022-11-06T00:23:25.465Z,5.35
2022-11-06T00:25:56.671Z,5.43
2022-11-06T00:28:24.875Z,5.57
2022-11-06T00:30:52.910Z,5.20
2022-11-06T00:33:20.949Z,5.82
2022-11-06T00:35:49.086Z,4.70
2022-11-06T00:38:18.596Z,4.93
2022-11-06T00:40:47.874Z,4.05
2022-11-06T00:43:16.685Z,4.63
2022-11-06T00:45:45.119Z,4.95
2022-11-06T00:48:16.617Z,4.80
2022-11-06T00:50:56.401Z,4.82
2022-11-06T00:53:49.747Z,4.80
2022-11-06T00:56:29.078Z,4.88
2022-11-06T00:59:01.407Z,4.80
2022-11-06T01:01:35.771Z,4.78
2022-11-06T01:04:09.885Z,4.80
2022-11-06T01:06:49.834Z,5.10
2022-11-06T01:09:23.263Z,4.88
2022-11-06T01:12:12.511Z,5.30
2022-11-06T01:14:43.577Z,6.53
2022-11-06T01:17:15.239Z,6.93
2022-11-06T01:19:52.347Z,6.75
2022-11-06T01:22:24.210Z,8.90
2022-11-06T01:24:58.071Z,7.55
2022-11-06T01:27:27.700Z,7.97
2022-11-06T01:29:57.143Z,8.45
2022-11-06T01:32:28.669Z,6.55
2022-11-06T01:35:00.495Z,7.07
2022-11-06T01:37:38.271Z,6.85
2022-11-06T01:40:09.048Z,6.72
2022-11-06T01:42:40.782Z,6.47
2022-11-06T01:45:34.739Z,6.80
2022-11-06T01:48:06.424Z,8.98
2022-11-06T01:50:37.997Z,9.57
2022-11-06T01:53:08.655Z,9.73
2022-11-06T01:55:44.541Z,9.98
2022-11-06T01:58:25.835Z,10.32
2022-11-06T02:00:55.739Z,10.68
2022-11-06T02:03:26.209Z,9.50
2022-11-06T02:05:59.183Z,8.65
2022-11-06T02:08:30.198Z,9.68
2022-11-06T02:11:00.038Z,9.23
2022-11-06T02:13:40.687Z,9.73
2022-11-06T02:16:17.960Z,9.93
2022-11-06T02:19:16.262Z,9.50
2022-11-06T02:22:13.086Z,9.57
2022-11-06T02:25:15.837Z,9.65
2022-11-06T02:28:03.213Z,9.85
2022-11-06T02:30:38.216Z,8.90
2022-11-06T02:33:13.014Z,9.50
2022-11-06T02:35:49.097Z,9.35
2022-11-06T02:38:22.515Z,9.63
2022-11-06T02:40:56.346Z,9.35
2022-11-06T02:43:35.297Z,9.25
2022-11-06T02:46:12.389Z,8.93
2022-11-06T02:48:48.245Z,10.10
2022-11-06T02:51:28.768Z,9.23
2022-11-06T02:54:03.626Z,9.73
2022-11-06T02:56:40.028Z,9.68
2022-11-06T02:59:16.701Z,9.82
2022-11-06T03:01:55.056Z,10.02
2022-11-06T03:04:34.209Z,8.88
2022-11-06T03:07:10.191Z,9.40
2022-11-06T03:09:39.040Z,9.27
2022-11-06T03:12:17.950Z,10.45
2022-11-06T03:14:57.630Z,10.40
2022-11-06T03:17:48.609Z,9.75
2022-11-06T03:20:26.939Z,10.02
2022-11-06T03:23:06.283Z,9.55
2022-11-06T03:25:43.620Z,10.27
2022-11-06T03:28:22.390Z,10.70
2022-11-06T03:31:02.339Z,10.50
2022-11-06T03:33:45.117Z,10.48
2022-11-06T03:36:21.627Z,10.50
2022-11-06T03:38:57.364Z,11.57
2022-11-06T03:41:42.269Z,11.18
2022-11-06T03:44:23.167Z,10.45
2022-11-06T03:47:00.699Z,10.18
2022-11-06T03:49:44.647Z,11.00
2022-11-06T03:52:25.543Z,10.02
2022-11-06T03:55:07.757Z,10.55
2022-11-06T03:57:49.300Z,10.07
2022-11-06T04:00:42.968Z,9.57
2022-11-06T04:03:26.871Z,9.88
2022-11-06T04:06:04.251Z,9.73
2022-11-06T04:08:53.280Z,9.77
2022-11-06T04:11:42.977Z,10.00
2022-11-06T04:14:17.250Z,9.20
2022-11-06T04:17:05.141Z,9.82
2022-11-06T04:19:44.683Z,8.80
2022-11-06T04:22:34.038Z,8.77
2022-11-06T04:25:35.121Z,8.77
2022-11-06T04:28:34.844Z,8.23
2022-11-06T04:31:31.737Z,7.90
2022-11-06T04:34:21.338Z,9.00
2022-11-06T04:37:23.749Z,9.10
2022-11-06T04:40:21.381Z,8.93
2022-11-06T04:43:21.710Z,8.75
2022-11-06T04:46:12.239Z,8.80
2022-11-06T04:49:09.842Z,9.40
2022-11-06T04:52:05.871Z,8.55
2022-11-06T04:54:53.541Z,8.98
2022-11-06T04:57:39.154Z,8.77
2022-11-06T05:00:21.623Z,8.30
2022-11-06T05:03:02.429Z,8.90
2022-11-06T05:05:43.861Z,8.23
2022-11-06T05:08:28.630Z,8.52
2022-11-06T05:11:18.352Z,8.63
2022-11-06T05:13:58.160Z,8.80
2022-11-06T05:16:32.235Z,8.32
2022-11-06T05:19:14.593Z,8.15
2022-11-06T05:22:34.687Z,8.35
2022-11-06T05:48:03.220Z,8.98
2022-11-06T05:51:29.213Z,8.65
2022-11-06T05:54:14.563Z,8.70
2022-11-06T05:56:54.734Z,10.57
2022-11-06T06:02:27.842Z,9.13
2022-11-06T06:13:29.363Z,7.38
2022-11-06T06:16:19.469Z,6.30
2022-11-06T06:18:50.497Z,6.57
2022-11-06T06:21:19.523Z,6.95
2022-11-06T06:23:49.947Z,8.25
2022-11-06T06:27:21.368Z,8.98
2022-11-06T06:43:55.220Z,9.05
2022-11-06T06:45:24.792Z,9.77
2022-11-06T06:48:14.283Z,9.13
2022-11-06T06:54:39.151Z,9.18
2022-11-06T06:57:09.214Z,9.98
2022-11-06T07:00:19.753Z,10.82
2022-11-06T07:02:58.657Z,10.75
2022-11-06T07:05:26.819Z,11.05
2022-11-06T07:07:55.062Z,11.45
2022-11-06T07:10:23.483Z,11.23
2022-11-06T07:12:51.902Z,11.57
2022-11-06T07:15:20.241Z,11.35
2022-11-06T07:17:48.577Z,11.18
2022-11-06T07:20:19.067Z,10.68
2022-11-06T07:22:48.904Z,12.10
2022-11-06T07:25:17.714Z,10.98
2022-11-06T07:27:48.206Z,11.30
2022-11-06T07:30:16.515Z,10.45
2022-11-06T07:32:44.742Z,10.88
2022-11-06T07:35:15.111Z,11.70
2022-11-06T07:37:44.628Z,11.45
2022-11-06T07:40:13.791Z,10.73
2022-11-06T07:42:46.775Z,9.50
2022-11-06T07:45:16.774Z,8.93
2022-11-06T07:47:45.025Z,8.70
2022-11-06T07:50:13.130Z,7.18
2022-11-06T07:52:44.853Z,8.85
2022-11-06T07:55:13.124Z,7.07
2022-11-06T07:58:39.925Z,6.40
2022-11-06T08:01:30.617Z,6.15
2022-11-06T08:04:48.897Z,5.40
2022-11-06T08:08:00.514Z,5.82
2022-11-06T08:21:36.526Z,5.65
2022-11-06T08:35:22.185Z,3.60
2022-11-06T08:37:53.308Z,3.55
2022-11-06T08:40:25.303Z,3.70
2022-11-06T08:43:07.074Z,3.50
2022-11-06T10:32:02.356Z,7.75
2022-11-06T10:42:38.752Z,7.25
2022-11-06T11:00:34.007Z,2.22
2022-11-06T11:03:04.946Z,2.50
2022-11-06T11:05:56.137Z,2.28
2022-11-06T11:08:34.739Z,2.45
2022-11-06T11:11:05.639Z,2.20
2022-11-06T11:13:34.932Z,2.10
2022-11-06T11:16:15.297Z,2.13
2022-11-06T11:18:49.637Z,3.60
2022-11-06T11:21:25.949Z,6.22
2022-11-06T11:24:12.240Z,5.75
2022-11-06T11:26:44.581Z,4.60
2022-11-06T11:29:19.251Z,5.30
2022-11-06T11:31:52.910Z,5.10
2022-11-06T11:34:27.229Z,5.38
2022-11-06T11:37:00.007Z,5.85
2022-11-06T11:39:31.796Z,4.15
2022-11-06T11:42:26.401Z,4.18
2022-11-06T11:45:18.129Z,8.48
2022-11-06T11:47:51.626Z,7.60
2022-11-06T11:50:28.238Z,6.53
2022-11-06T11:53:07.253Z,3.47
2022-11-06T11:55:43.037Z,5.40
2022-11-06T11:58:21.491Z,4.43
2022-11-06T12:00:57.930Z,5.13
2022-11-06T12:03:30.900Z,4.93
2022-11-06T12:06:09.195Z,3.85
2022-11-06T12:08:43.068Z,4.65
2022-11-06T12:11:15.819Z,4.53
2022-11-06T12:13:44.214Z,5.38
2022-11-06T12:16:18.636Z,5.60
2022-11-06T12:18:54.779Z,5.90
2022-11-06T12:21:31.730Z,5.50
2022-11-06T12:24:05.421Z,4.95
2022-11-06T12:26:37.254Z,4.93
2022-11-06T12:29:11.921Z,5.80
2022-11-06T12:31:43.269Z,5.75
2022-11-06T12:34:22.401Z,6.72
2022-11-06T12:37:05.106Z,5.80
2022-11-06T12:39:38.500Z,6.05
2022-11-06T12:42:12.552Z,6.40
2022-11-06T12:44:40.768Z,6.20
2022-11-06T12:47:20.539Z,6.30
2022-11-06T12:50:18.006Z,8.57
2022-11-06T12:53:06.742Z,5.70
2022-11-06T12:55:38.914Z,5.93
2022-11-06T12:58:24.710Z,6.13
2022-11-06T13:01:04.876Z,5.03
2022-11-06T13:03:59.808Z,4.75
2022-11-06T13:06:42.482Z,5.53
2022-11-06T13:09:19.408Z,5.60
2022-11-06T13:11:57.460Z,5.20
2022-11-06T13:14:34.160Z,5.40
2022-11-06T13:17:10.060Z,7.38
2022-11-06T13:19:47.887Z,7.00
2022-11-06T13:22:25.316Z,7.68
2022-11-06T13:25:00.786Z,7.05
2022-11-06T13:27:36.150Z,5.63
2022-11-06T13:30:06.500Z,6.43
2022-11-06T13:32:37.182Z,6.40
2022-11-06T13:35:05.947Z,7.15
2022-11-06T13:37:40.860Z,6.97
2022-11-06T13:40:24.765Z,7.50
2022-11-06T13:42:59.589Z,6.90
2022-11-06T13:45:29.250Z,7.95
2022-11-06T13:48:08.576Z,8.70
2022-11-06T13:50:50.375Z,7.05
2022-11-06T13:53:25.968Z,7.38
2022-11-06T14:48:42.923Z,9.68
2022-11-06T15:03:22.950Z,4.20
2022-11-06T15:06:20.581Z,4.95
2022-11-06T15:09:05.620Z,4.68
2022-11-06T15:12:08.416Z,4.40
2022-11-06T15:15:10.804Z,4.40
2022-11-06T15:17:56.384Z,5.00
2022-11-06T15:29:07.842Z,5.88
2022-11-06T15:32:29.277Z,6.47
2022-11-06T15:35:53.569Z,7.28
2022-11-06T15:38:38.401Z,6.22
2022-11-06T15:42:36.636Z,6.13
2022-11-06T15:49:13.706Z,5.50
2022-11-06T15:58:19.756Z,5.80
2022-11-06T16:01:05.200Z,4.93
2022-11-06T16:03:54.492Z,5.13
2022-11-06T16:06:27.691Z,4.82
2022-11-06T16:08:59.041Z,5.00
2022-11-06T16:11:41.254Z,5.10
2022-11-06T16:14:18.566Z,5.13
2022-11-06T16:18:26.464Z,4.90
2022-11-06T16:27:52.351Z,4.30
2022-11-06T16:59:46.035Z,3.55
2022-11-06T17:02:24.815Z,3.90
2022-11-06T17:05:26.374Z,3.40
2022-11-06T17:08:32.141Z,3.33
2022-11-06T17:11:31.552Z,3.47
2022-11-06T17:14:08.110Z,3.28
2022-11-06T17:16:52.512Z,2.65
2022-11-06T17:19:27.413Z,3.22
2022-11-06T17:21:56.272Z,3.45
2022-11-06T17:24:37.673Z,3.90
2022-11-06T17:27:09.789Z,4.00
2022-11-06T17:29:51.787Z,3.25
2022-11-06T17:32:36.046Z,3.42
2022-11-06T17:35:24.357Z,3.25
2022-11-06T17:38:07.585Z,3.40
2022-11-06T17:45:20.607Z,2.70
2022-11-06T17:47:50.423Z,2.47
2022-11-06T17:50:25.104Z,2.40
2022-11-06T17:52:59.603Z,2.58
2022-11-06T17:55:31.284Z,2.55
2022-11-06T17:58:08.298Z,2.63
2022-11-06T18:00:40.953Z,2.40
2022-11-06T18:03:36.317Z,1.80
2022-11-06T18:06:34.900Z,1.63
2022-11-06T18:09:04.911Z,1.58
2022-11-06T18:12:12.161Z,1.70
2022-11-06T18:23:19.401Z,2.05
2022-11-06T19:08:25.494Z,4.50
2022-11-06T19:10:59.497Z,4.65
2022-11-06T19:17:12.405Z,3.20
2022-11-06T19:23:34.297Z,4.60
2022-11-06T19:26:29.385Z,5.45
2022-11-06T19:28:58.441Z,4.10
2022-11-06T19:31:29.189Z,4.00
2022-11-06T19:33:57.957Z,3.92
2022-11-06T19:36:26.339Z,2.50
2022-11-06T19:38:57.301Z,4.15
2022-11-06T19:41:28.278Z,3.90
2022-11-06T19:43:56.542Z,2.30
2022-11-06T19:46:29.497Z,3.50
2022-11-06T19:48:59.281Z,2.80
2022-11-06T19:51:27.946Z,2.05
2022-11-06T19:53:57.651Z,2.10
2022-11-06T19:56:26.642Z,2.13
2022-11-06T19:58:54.879Z,4.63
2022-11-06T20:01:23.384Z,6.05
2022-11-06T20:03:51.976Z,5.65
2022-11-06T20:06:20.177Z,3.83
2022-11-06T20:08:49.248Z,4.68
2022-11-06T20:11:19.517Z,2.80
2022-11-06T20:13:48.021Z,2.40
2022-11-06T20:16:17.757Z,2.85
2022-11-06T20:18:49.866Z,3.00
2022-11-06T20:21:18.206Z,4.85
2022-11-06T20:23:46.390Z,2.47
2022-11-06T20:26:14.900Z,2.80
2022-11-06T20:28:46.769Z,2.67
2022-11-06T20:31:16.176Z,4.55
2022-11-06T20:33:44.217Z,4.43
2022-11-06T20:36:14.244Z,2.05
2022-11-06T20:38:42.814Z,3.20
2022-11-06T20:41:11.407Z,2.13
2022-11-06T20:43:39.771Z,1.90
2022-11-06T20:46:11.414Z,1.77
2022-11-06T20:48:40.914Z,1.48
2022-11-06T20:51:13.734Z,3.65
2022-11-06T20:53:46.542Z,4.63
2022-11-06T20:56:20.614Z,4.30
2022-11-06T20:58:49.097Z,2.00
2022-11-06T21:01:22.307Z,2.45
2022-11-06T21:03:51.736Z,1.30
2022-11-06T21:06:21.617Z,1.10
2022-11-06T21:08:49.918Z,1.83
2022-11-06T21:11:21.152Z,1.80
2022-11-06T21:13:53.688Z,1.50
2022-11-06T21:16:25.523Z,2.50
2022-11-06T21:18:53.946Z,2.10
2022-11-06T21:21:23.915Z,1.50
2022-11-06T21:23:53.192Z,1.50
2022-11-06T21:26:23.271Z,1.98
2022-11-06T21:28:52.207Z,1.60
2022-11-06T21:31:24.455Z,1.80
2022-11-06T21:33:54.696Z,1.27
2022-11-06T21:36:25.366Z,1.73
2022-11-06T21:38:53.700Z,1.02
2022-11-06T21:41:24.256Z,2.15
2022-11-06T21:43:52.442Z,4.18
2022-11-06T21:46:22.640Z,1.40
2022-11-06T21:48:51.740Z,5.82
2022-11-06T21:51:21.899Z,6.65
2022-11-06T21:54:08.153Z,3.70
2022-11-06T21:56:37.166Z,5.57
2022-11-06T21:59:06.466Z,3.70
2022-11-06T22:01:36.914Z,2.92
2022-11-06T22:04:05.725Z,1.60
2022-11-06T22:06:34.054Z,1.00
2022-11-06T22:09:03.724Z,0.80
2022-11-06T22:11:33.998Z,1.55
2022-11-06T22:14:04.703Z,1.13
2022-11-06T22:16:39.894Z,1.75
2022-11-06T22:19:09.861Z,1.60
2022-11-06T22:21:39.549Z,1.23
2022-11-06T22:24:09.194Z,0.88
2022-11-06T22:26:38.102Z,2.38
2022-11-06T22:29:08.524Z,2.40
2022-11-06T22:31:38.114Z,1.60
2022-11-06T22:34:06.502Z,2.05
2022-11-06T22:36:34.639Z,1.20
2022-11-06T22:39:06.313Z,0.88
2022-11-06T22:41:34.574Z,1.63
2022-11-06T22:44:02.974Z,2.38
2022-11-06T22:46:31.652Z,1.00
2022-11-06T22:49:01.267Z,1.17
2022-11-06T22:51:31.118Z,0.80
2022-11-06T22:53:59.460Z,0.93
2022-11-06T22:56:28.727Z,1.00
2022-11-06T22:58:58.322Z,2.67
2022-11-06T23:01:30.321Z,2.25
2022-11-06T23:04:03.031Z,1.05
2022-11-06T23:06:31.576Z,5.13
2022-11-06T23:09:00.194Z,3.28
2022-11-06T23:11:29.541Z,2.38
2022-11-06T23:14:03.338Z,3.80
2022-11-06T23:16:52.951Z,2.45
2022-11-06T23:19:22.505Z,2.25
2022-11-06T23:21:50.882Z,0.95
2022-11-06T23:24:21.824Z,1.33
2022-11-06T23:26:50.310Z,0.82
2022-11-06T23:29:19.623Z,1.00
2022-11-06T23:31:59.748Z,1.10
2022-11-06T23:34:29.723Z,1.10
2022-11-06T23:37:00.530Z,1.10
2022-11-06T23:39:29.198Z,0.90
2022-11-06T23:41:58.958Z,1.45
2022-11-06T23:44:44.395Z,1.05
2022-11-06T23:47:15.986Z,1.00
2022-11-06T23:49:46.797Z,1.08
2022-11-06T23:52:15.488Z,1.00
2022-11-06T23:54:44.282Z,1.10
2022-11-06T23:57:15.153Z,1.10
2022-11-06T23:59:46.037Z,1.02
